Decoded Metar for KMCJ ( in _UNIDENTIFIED) (IATA:N/A) | Meteo·Mobile Aviation Weather
aviador You're here:

KMCJ Decoded Metar

in _UNIDENTIFIED
Report Time2018-10-17 19:55:00
UTC Time2018-10-17 20:20:33
Flight Rules mvfr MVFR
Wind350° at 09 kt
W.Rank350° ranks 12
Current wind is above 350° avg. (8.2)
Visibility9999 m
Phenomena:N/A
Clouds:Overcast 013 Hf
Expected CloudBase > 1,600 ft AGL from Temp-Dew spread
Ceiling1,300 ft
Temp18°C (ISA +3)
Dew Point14°C (78% RH)
AAT16.1°C
QNH1021 hPa
Density Alt574 ft
Elevation226 ft
Report Wrong Elevation
Raw Report
KMCJ 171955Z AUTO 35009KT 320V020 10SM OVC013 18/14 A3016 RMK
A01=

Extra information for KMCJ:More info

Metar Taf Metar & Taf Last 4 Metars F.Rules Stats Wind Profile Meteogram Temp Stats Metar ALERT Operation Metar Decoded Social comments